Архив погоды в Белинском

Метеограмма Белинский
Вторник, 22 Мая
Время местн. Темп Ветер Видим Явления Облачность нижн/средн/верх Атм. давл. Влжн Точка росы ВНГО R Сост. почвы Tg s
Напр Скр Прв ур.ст ур.м изм
21:00 +19° В,Ю-В 1 - 23 км - облачно 753 771 +0.3 57% +10.2° - - - - -
18:00 +21.9° Ю-В 2 - 10 км - облачно 752 770 +0.1 45% +9.3° - - - - -
15:00 +23.3° Ю-В 4 - 20 км - облачно с прояснениями 752 770 -0.9 37% +8° - - - - -
12:00 +19.9° В,Ю-В 4 - 20 км - облачно с прояснениями 753 771 +0.2 49% +8.9° - - - - -
09:00 +15.5° В,Ю-В 4 - 20 км - преимущественно облачно 753 771 +0.8 61% +8° 1 км - - - -
06:00 +12.5° В 3 - 20 км - облачно с прояснениями 752 771 +0.7 69% +7° 1 км - Влажная (без луж) - -
03:00 +11° В 2 - 28 км - переменная облачность 751 770 +0.5 74% +6.5° - - - - -
00:00 +12.2° В 2 - 21 км - облачно 751 770 +0.4 79% +8.6° 1 км - - - -
Понедельник, 21 Мая
Время местн. Темп Ветер Видим Явления Облачность нижн/средн/верх Атм. давл. Влжн Точка росы ВНГО R Сост. почвы Tg s
Напр Скр Прв ур.ст ур.м изм
21:00 +12.3° В 1 - 20 км небо без изменений {дождь} преимущественно облачно 751 769 +0.7 92% +11.1° 1 км - - - -
18:00 +12° В 2 - 4 км умеренный непрерывный дождь облачно 750 769 +0.5 97% +11.5° 600 м - - - -
15:00 +11.9° В 2 - 4 км умеренный непрерывный дождь облачно 749 768 -0.2 92% +10.7° 600 м - - - -
12:00 +11.4° В 2 - 4 км слабый непрерывный дождь облачно 750 768 +1.2 92% +10.2° 600 м - - - -
09:00 +13.1° В 2 - 10 км - облачно 748 767 +1.3 88% +11.1° 600 м - - - -
06:00 +11.5° В 3 - 10 км - облачно 747 766 -0.1 93% +10.4° 1.5 км - Сухая (без трещин) - -
03:00 +11.5° В 2 - 21 км - облачно 746 765 -0.1 94% +10.5° 1.5 км - - - -
00:00 +15.1° В,С-В 1 - 21 км - облачно 746 764 +1.4 79% +11.5° 2 км - - - -
Воскресенье, 20 Мая
Время местн. Темп Ветер Видим Явления Облачность нижн/средн/верх Атм. давл. Влжн Точка росы ВНГО R Сост. почвы Tg s
Напр Скр Прв ур.ст ур.м изм
21:00 +17.9° С-В 2 - 23 км - преимущественно облачно 745 763 +1 67% +11.6° - - - - -
18:00 +21.3° С,С-В 2 - 20 км - переменная облачность 744 762 +0.1 48% +10° - - - - -
15:00 +22° С 3 - 20 км - переменная облачность 744 762 +0.3 54% +12.4° 1.5 км - - - -
12:00 +20.6° С 2 - 20 км - переменная облачность 744 761 +0.8 64% +13.6° 1 км - - - -
09:00 +18° С 2 - 20 км - облачно с прояснениями 743 761 +0.9 76% +13.7° 1.5 км - - - -
06:00 +13.4° З 1 - 20 км - ясно 742 760 +0.9 94% +12.5° более 2.5 км - Влажная (без луж) - -
03:00 +11.9° З,Ю-З 1 - 28 км небо без изменений {гроза, ливневые осадки} незначительная облачность 741 759 +0.5 91% +10.4° - - - - -
00:00 +14.3° З 1 - 26 км облака рассеиваются {гроза, ливневые осадки} переменная облачность 740 759 +0.2 93% +13.2° - - - - -
Суббота, 19 Мая
Время местн. Темп Ветер Видим Явления Облачность нижн/средн/верх Атм. давл. Влжн Точка росы ВНГО R Сост. почвы Tg s
Напр Скр Прв ур.ст ур.м изм
21:00 +14.8° Ю,Ю-З 1 - 21 км гроза без осадков облачно с прояснениями 740 758 +1.4 96% +14.1° 1 км - - - -
18:00 +19.1° Ю,Ю-З 2 - 20 км - переменная облачность 739 757 -0.3 72% +14° 1.5 км - - - -